Maldives Meteorological Service

SYNOP

Station Code SYNOP
43555
AAXX 03064 43555 12465 30708 10318 20229 30110 40112 60001 82201 333 58013 82818=
43533
AAXX 03064 43533 12460 20707 10323 20241 30116 40118 60001 82200 333 58010 82818=
43577
AAXX 03064 43577 12462 30508 10315 20257 30105 40107 60001 82242 333 58005 82818=
43588
AAXX 03064 43588 12462 43605 10312 20264 30101 40102 60001 82232 333 58001 82818 84077=
43599
AAXX 03064 43599 12462 50504 10312 20261 30102 40104 69901 82232 333 58002 82818 84362=
Last Updated : 2020-04-03 11:00:02